createdAt,value
2022-09-28T00:01:24.559Z,13.21
2022-09-28T00:03:55.063Z,13.24
2022-09-28T00:06:24.965Z,13.28
2022-09-28T00:08:53.910Z,13.32
2022-09-28T00:11:23.699Z,13.35
2022-09-28T00:13:56.618Z,13.38
2022-09-28T00:16:29.037Z,13.42
2022-09-28T00:19:00.461Z,13.43
2022-09-28T00:21:31.655Z,13.47
2022-09-28T00:24:17.417Z,13.55
2022-09-28T00:26:52.721Z,13.62
2022-09-28T00:29:29.206Z,13.57
2022-09-28T00:32:02.413Z,13.50
2022-09-28T00:34:33.322Z,13.45
2022-09-28T00:37:03.117Z,13.47
2022-09-28T00:39:31.818Z,13.36
2022-09-28T00:42:00.499Z,13.26
2022-09-28T00:44:42.140Z,13.22
2022-09-28T00:47:34.298Z,13.17
2022-09-28T00:50:14.891Z,13.19
2022-09-28T00:53:11.812Z,13.24
2022-09-28T00:55:48.093Z,13.43
2022-09-28T00:58:27.483Z,13.56
2022-09-28T01:00:59.706Z,13.59
2022-09-28T01:03:29.274Z,13.47
2022-09-28T01:06:02.262Z,13.33
2022-09-28T01:08:33.176Z,13.05
2022-09-28T01:11:02.143Z,13.00
2022-09-28T01:13:35.072Z,12.94
2022-09-28T01:16:24.898Z,12.88
2022-09-28T01:19:31.727Z,12.89
2022-09-28T01:22:24.168Z,12.91
2022-09-28T01:25:31.767Z,12.99
2022-09-28T01:28:16.343Z,12.98
2022-09-28T01:30:56.506Z,12.96
2022-09-28T01:33:31.318Z,13.04
2022-09-28T01:36:08.054Z,13.07
2022-09-28T01:38:52.741Z,13.08
2022-09-28T01:41:24.099Z,13.09
2022-09-28T01:43:57.606Z,13.11
2022-09-28T01:46:36.672Z,13.13
2022-09-28T01:49:12.138Z,13.13
2022-09-28T01:52:15.623Z,13.12
2022-09-28T01:54:56.615Z,13.13
2022-09-28T01:57:31.920Z,13.13
2022-09-28T02:00:14.775Z,13.08
2022-09-28T02:03:04.604Z,13.07
2022-09-28T02:06:08.660Z,13.07
2022-09-28T02:09:09.775Z,13.02
2022-09-28T02:11:50.624Z,13.03
2022-09-28T02:14:20.943Z,13.05
2022-09-28T02:16:56.618Z,13.00
2022-09-28T02:19:32.446Z,12.98
2022-09-28T02:22:23.466Z,12.97
2022-09-28T02:24:58.583Z,12.98
2022-09-28T02:27:50.235Z,12.96
2022-09-28T02:30:18.920Z,12.91
2022-09-28T02:32:50.636Z,12.93
2022-09-28T02:35:19.880Z,12.93
2022-09-28T02:37:49.096Z,12.94
2022-09-28T02:40:21.997Z,12.92
2022-09-28T02:42:54.964Z,12.90
2022-09-28T02:46:15.556Z,12.89
2022-09-28T02:49:30.503Z,12.91
2022-09-28T02:51:58.763Z,12.89
2022-09-28T02:55:16.775Z,12.96
2022-09-28T02:57:53.911Z,12.96
2022-09-28T03:00:24.184Z,13.02
2022-09-28T03:03:04.043Z,13.05
2022-09-28T03:05:43.574Z,13.10
2022-09-28T03:08:19.720Z,13.00
2022-09-28T03:10:58.050Z,12.87
2022-09-28T03:13:28.053Z,12.87
2022-09-28T03:16:10.955Z,12.91
2022-09-28T03:18:39.929Z,12.75
2022-09-28T03:21:11.007Z,12.71
2022-09-28T03:23:39.758Z,12.68
2022-09-28T03:26:16.870Z,12.65
2022-09-28T03:28:45.189Z,12.67
2022-09-28T03:31:22.592Z,12.62
2022-09-28T03:33:52.278Z,12.65
2022-09-28T03:36:20.604Z,12.70
2022-09-28T03:38:51.541Z,12.72
2022-09-28T03:41:19.734Z,12.75
2022-09-28T03:43:47.993Z,12.77
2022-09-28T03:46:16.555Z,12.84
2022-09-28T03:48:49.180Z,12.91
2022-09-28T03:51:17.527Z,12.91
2022-09-28T03:53:45.804Z,12.89
2022-09-28T03:56:15.559Z,12.92
2022-09-28T03:58:43.719Z,12.96
2022-09-28T04:01:17.527Z,13.07
2022-09-28T04:03:57.055Z,13.18
2022-09-28T04:06:26.435Z,13.24
2022-09-28T04:08:54.956Z,13.07
2022-09-28T04:11:24.146Z,12.92
2022-09-28T04:13:52.440Z,12.89
2022-09-28T04:16:39.438Z,12.88
2022-09-28T04:19:11.990Z,12.88
2022-09-28T04:21:40.878Z,12.89
2022-09-28T04:24:11.764Z,12.87
2022-09-28T04:26:40.193Z,12.95
2022-09-28T04:29:16.725Z,13.04
2022-09-28T04:31:53.525Z,13.08
2022-09-28T04:34:24.964Z,12.94
2022-09-28T04:36:53.270Z,12.70
2022-09-28T04:39:21.630Z,12.76
2022-09-28T04:41:56.704Z,12.80
2022-09-28T04:44:24.906Z,12.70
2022-09-28T04:47:03.006Z,12.73
2022-09-28T04:49:35.480Z,12.68
2022-09-28T04:52:08.356Z,12.73
2022-09-28T04:54:36.751Z,12.75
2022-09-28T04:57:06.160Z,12.75
2022-09-28T04:59:34.368Z,12.77
2022-09-28T05:02:02.676Z,12.83
2022-09-28T05:04:42.831Z,12.91
2022-09-28T05:07:33.494Z,13.03
2022-09-28T05:10:04.273Z,13.08
2022-09-28T05:12:33.958Z,13.20
2022-09-28T05:15:02.157Z,13.28
2022-09-28T05:17:30.953Z,13.32
2022-09-28T05:20:10.677Z,13.36
2022-09-28T05:22:39.298Z,13.22
2022-09-28T05:25:10.791Z,12.94
2022-09-28T05:28:03.931Z,12.81
2022-09-28T05:30:41.773Z,12.83
2022-09-28T05:33:28.700Z,12.73
2022-09-28T05:36:08.574Z,12.79
2022-09-28T05:38:36.813Z,12.79
2022-09-28T05:41:06.802Z,12.88
2022-09-28T05:43:36.369Z,12.94
2022-09-28T05:46:06.874Z,12.95
2022-09-28T05:48:38.314Z,12.93
2022-09-28T05:51:07.863Z,12.99
2022-09-28T05:53:36.498Z,12.95
2022-09-28T05:56:04.890Z,13.15
2022-09-28T05:58:34.780Z,13.29
2022-09-28T06:01:03.150Z,13.35
2022-09-28T06:03:31.980Z,13.42
2022-09-28T06:06:03.963Z,13.56
2022-09-28T06:08:33.348Z,13.66
2022-09-28T06:11:14.858Z,13.73
2022-09-28T06:13:43.043Z,13.77
2022-09-28T06:16:17.298Z,13.86
2022-09-28T06:18:48.448Z,13.95
2022-09-28T06:21:47.149Z,13.87
2022-09-28T06:24:15.788Z,13.80
2022-09-28T06:26:44.094Z,13.73
2022-09-28T06:29:19.900Z,13.88
2022-09-28T06:31:48.650Z,13.77
2022-09-28T06:34:17.401Z,13.66
2022-09-28T06:37:04.749Z,13.60
2022-09-28T06:39:33.651Z,13.64
2022-09-28T06:42:03.301Z,13.65
2022-09-28T06:44:52.132Z,13.72
2022-09-28T06:47:42.872Z,13.88
2022-09-28T06:50:29.951Z,13.99
2022-09-28T06:53:14.816Z,14.18
2022-09-28T06:55:52.326Z,14.12
2022-09-28T06:58:21.714Z,14.21
2022-09-28T07:00:53.297Z,14.34
2022-09-28T07:03:23.243Z,14.35
2022-09-28T07:06:24.002Z,14.62
2022-09-28T07:09:29.717Z,14.75
2022-09-28T07:12:16.890Z,14.91
2022-09-28T07:15:14.768Z,15.04
2022-09-28T07:17:55.051Z,15.20
2022-09-28T07:20:26.717Z,15.36
2022-09-28T07:22:57.135Z,15.46
2022-09-28T07:25:32.357Z,15.62
2022-09-28T07:28:09.926Z,15.87
2022-09-28T07:30:58.066Z,16.12
2022-09-28T07:34:02.507Z,16.33
2022-09-28T07:36:36.473Z,16.44
2022-09-28T07:39:05.165Z,16.60
2022-09-28T07:41:35.079Z,16.81
2022-09-28T07:44:06.878Z,16.93
2022-09-28T07:46:37.773Z,17.02
2022-09-28T07:49:12.786Z,17.14
2022-09-28T07:51:59.482Z,17.29
2022-09-28T07:54:31.319Z,17.19
2022-09-28T07:56:59.554Z,17.10
2022-09-28T07:59:38.861Z,17.14
2022-09-28T08:02:27.034Z,17.20
2022-09-28T08:04:56.399Z,17.20
2022-09-28T08:07:25.688Z,17.28
2022-09-28T08:10:06.433Z,17.35
2022-09-28T08:12:59.164Z,17.55
2022-09-28T08:15:43.673Z,17.68
2022-09-28T08:18:24.044Z,17.90
2022-09-28T08:21:12.313Z,17.88
2022-09-28T08:23:40.633Z,18.10
2022-09-28T08:26:13.312Z,18.26
2022-09-28T08:28:45.313Z,18.46
2022-09-28T08:31:39.588Z,18.63
2022-09-28T08:34:42.457Z,18.88
2022-09-28T08:37:37.002Z,18.93
2022-09-28T08:40:38.079Z,19.02
2022-09-28T08:43:44.289Z,19.01
2022-09-28T08:46:27.220Z,19.25
2022-09-28T08:49:36.272Z,19.33
2022-09-28T08:52:30.242Z,19.55
2022-09-28T08:55:18.724Z,19.57
2022-09-28T08:57:55.867Z,19.82
2022-09-28T09:00:39.798Z,19.72
2022-09-28T09:03:23.800Z,19.71
2022-09-28T09:06:46.539Z,19.75
2022-09-28T09:10:02.587Z,19.65
2022-09-28T09:12:43.770Z,19.61
2022-09-28T09:15:14.745Z,19.76
2022-09-28T09:17:42.917Z,19.81
2022-09-28T09:20:57.271Z,20.19
2022-09-28T09:23:55.451Z,20.45
2022-09-28T09:26:39.952Z,20.25
2022-09-28T09:29:36.484Z,20.52
2022-09-28T09:32:33.523Z,20.72
2022-09-28T09:35:31.578Z,20.90
2022-09-28T09:38:29.710Z,20.71
2022-09-28T09:41:16.315Z,20.78
2022-09-28T09:44:34.986Z,20.87
2022-09-28T09:47:32.112Z,21.00
2022-09-28T09:50:29.834Z,21.07
2022-09-28T09:53:25.091Z,21.08
2022-09-28T09:56:06.379Z,21.10
2022-09-28T09:58:47.825Z,20.84
2022-09-28T10:01:40.297Z,20.85
2022-09-28T10:04:40.808Z,20.87
2022-09-28T10:07:33.374Z,20.86
2022-09-28T10:10:03.126Z,20.83
2022-09-28T10:12:51.238Z,20.91
2022-09-28T10:18:14.315Z,20.89
2022-09-28T10:21:00.997Z,20.97
2022-09-28T10:23:37.946Z,20.98
2022-09-28T10:26:33.708Z,21.16
2022-09-28T10:29:05.713Z,21.11
2022-09-28T10:31:42.622Z,21.19
2022-09-28T10:34:29.664Z,21.06
2022-09-28T10:37:06.669Z,21.07
2022-09-28T10:39:58.329Z,21.05
2022-09-28T10:42:33.875Z,21.11
2022-09-28T10:45:22.240Z,21.24
2022-09-28T10:47:51.541Z,21.36
2022-09-28T10:50:28.194Z,21.33
2022-09-28T10:53:12.929Z,21.34
2022-09-28T10:56:23.301Z,21.29
2022-09-28T10:59:28.640Z,21.36
2022-09-28T11:02:26.185Z,21.31
2022-09-28T11:05:03.727Z,21.43
2022-09-28T11:07:46.445Z,21.37
2022-09-28T11:10:28.509Z,21.54
2022-09-28T11:13:01.215Z,21.86
2022-09-28T11:15:32.554Z,22.16
2022-09-28T11:18:24.073Z,22.41
2022-09-28T11:20:52.414Z,22.40
2022-09-28T11:23:30.411Z,22.39
2022-09-28T11:26:09.465Z,22.17
2022-09-28T11:28:42.123Z,21.91
2022-09-28T11:31:30.687Z,21.56
2022-09-28T11:34:41.777Z,21.71
2022-09-28T11:37:46.498Z,21.92
2022-09-28T11:40:37.989Z,22.46
2022-09-28T11:43:38.310Z,22.71
2022-09-28T11:46:40.433Z,22.76
2022-09-28T11:49:37.095Z,22.32
2022-09-28T11:52:18.755Z,22.42
2022-09-28T11:54:59.267Z,22.57
2022-09-28T11:57:36.766Z,22.89
2022-09-28T12:00:13.140Z,23.23
2022-09-28T12:03:15.216Z,23.44
2022-09-28T12:05:57.387Z,23.37
2022-09-28T12:08:35.117Z,23.27
2022-09-28T12:11:33.368Z,22.93
2022-09-28T12:14:29.049Z,23.37
2022-09-28T12:17:06.700Z,23.42
2022-09-28T12:19:51.845Z,23.58
2022-09-28T12:22:51.583Z,23.57
2022-09-28T12:25:23.209Z,23.07
2022-09-28T12:28:06.611Z,23.26
2022-09-28T12:30:40.642Z,23.70
2022-09-28T12:33:15.830Z,23.93
2022-09-28T12:35:44.219Z,22.83
2022-09-28T12:38:38.835Z,23.33
2022-09-28T12:41:22.659Z,23.63
2022-09-28T12:44:24.468Z,23.72
2022-09-28T12:47:14.783Z,24.09
2022-09-28T12:50:37.034Z,24.20
2022-09-28T12:53:09.356Z,24.04
2022-09-28T12:55:57.538Z,23.51
2022-09-28T12:58:44.794Z,23.19
2022-09-28T13:01:50.880Z,23.02
2022-09-28T13:04:44.205Z,22.76
2022-09-28T13:07:33.150Z,22.81
2022-09-28T13:10:16.763Z,22.52
2022-09-28T13:12:53.023Z,22.33
2022-09-28T13:15:36.234Z,22.11
2022-09-28T13:18:27.546Z,21.87
2022-09-28T13:21:11.625Z,21.78
2022-09-28T13:23:42.669Z,21.70
2022-09-28T13:26:32.911Z,21.76
2022-09-28T13:29:14.654Z,21.79
2022-09-28T13:31:50.615Z,21.71
2022-09-28T13:34:28.386Z,21.70
2022-09-28T13:37:16.847Z,21.67
2022-09-28T13:39:44.964Z,21.62
2022-09-28T13:42:30.971Z,21.61
2022-09-28T13:45:17.331Z,21.52
2022-09-28T13:48:36.347Z,21.30
2022-09-28T13:51:19.171Z,21.37
2022-09-28T13:54:17.261Z,21.42
2022-09-28T13:57:25.327Z,21.30
2022-09-28T14:00:10.463Z,21.36
2022-09-28T14:02:48.008Z,21.53
2022-09-28T14:05:41.727Z,21.58
2022-09-28T14:08:11.354Z,21.48
2022-09-28T14:10:52.497Z,21.36
2022-09-28T14:13:45.428Z,21.28
2022-09-28T14:16:23.653Z,21.29
2022-09-28T14:19:08.927Z,21.32
2022-09-28T14:21:45.828Z,21.43
2022-09-28T14:24:51.432Z,21.31
2022-09-28T14:27:32.494Z,21.32
2022-09-28T14:30:14.964Z,21.54
2022-09-28T14:32:53.419Z,21.61
2022-09-28T14:35:41.057Z,21.42
2022-09-28T14:38:44.279Z,21.40
2022-09-28T14:41:26.461Z,21.09
2022-09-28T14:44:03.624Z,20.85
2022-09-28T14:46:34.992Z,20.83
2022-09-28T14:49:26.067Z,20.91
2022-09-28T14:51:54.503Z,20.92
2022-09-28T14:54:26.595Z,20.96
2022-09-28T14:56:57.564Z,20.76
2022-09-28T14:59:36.073Z,20.72
2022-09-28T15:02:22.483Z,20.81
2022-09-28T15:05:00.045Z,20.92
2022-09-28T15:07:47.589Z,20.90
2022-09-28T15:10:31.380Z,20.85
2022-09-28T15:13:05.408Z,20.68
2022-09-28T15:15:38.889Z,20.61
2022-09-28T15:18:18.917Z,20.51
2022-09-28T15:20:49.222Z,20.45
2022-09-28T15:23:36.884Z,20.34
2022-09-28T15:26:08.585Z,20.40
2022-09-28T15:28:43.512Z,20.42
2022-09-28T15:31:21.880Z,20.38
2022-09-28T15:34:08.948Z,20.30
2022-09-28T15:36:46.999Z,20.23
2022-09-28T15:39:32.372Z,20.23
2022-09-28T15:42:01.216Z,20.21
2022-09-28T15:44:35.201Z,20.26
2022-09-28T15:47:10.693Z,20.28
2022-09-28T15:50:09.204Z,20.25
2022-09-28T15:52:46.970Z,20.16
2022-09-28T15:55:42.381Z,20.00
2022-09-28T15:58:15.108Z,19.92
2022-09-28T16:00:45.189Z,19.88
2022-09-28T16:03:21.764Z,19.79
2022-09-28T16:05:57.316Z,19.77
2022-09-28T16:08:37.463Z,19.68
2022-09-28T16:11:18.726Z,19.61
2022-09-28T16:14:01.831Z,19.60
2022-09-28T16:16:35.189Z,19.58
2022-09-28T16:19:05.162Z,19.62
2022-09-28T16:21:46.949Z,19.63
2022-09-28T16:24:24.523Z,19.54
2022-09-28T16:27:05.805Z,19.48
2022-09-28T16:29:40.025Z,19.40
2022-09-28T16:32:35.066Z,19.24
2022-09-28T16:35:23.421Z,19.08
2022-09-28T16:38:06.362Z,18.95
2022-09-28T16:40:35.236Z,18.89
2022-09-28T16:43:07.889Z,18.82
2022-09-28T16:45:37.616Z,18.74
2022-09-28T16:48:05.969Z,18.67
2022-09-28T16:50:34.148Z,18.61
2022-09-28T16:53:33.272Z,18.56
2022-09-28T16:56:05.555Z,18.52
2022-09-28T16:58:34.736Z,18.50
2022-09-28T17:01:03.647Z,18.43
2022-09-28T17:03:32.069Z,18.43
2022-09-28T17:06:02.433Z,18.36
2022-09-28T17:08:30.677Z,18.27
2022-09-28T17:11:22.735Z,18.30
2022-09-28T17:13:50.650Z,18.23
2022-09-28T17:16:36.754Z,18.22
2022-09-28T17:19:23.235Z,18.24
2022-09-28T17:21:52.897Z,18.19
2022-09-28T17:24:21.644Z,18.14
2022-09-28T17:26:51.774Z,18.09
2022-09-28T17:29:20.089Z,17.99
2022-09-28T17:31:52.159Z,17.92
2022-09-28T17:34:20.888Z,17.90
2022-09-28T17:36:49.406Z,17.92
2022-09-28T17:39:19.513Z,17.91
2022-09-28T17:41:47.801Z,17.88
2022-09-28T17:44:16.381Z,17.84
2022-09-28T17:46:48.640Z,17.80
2022-09-28T17:49:17.413Z,17.77
2022-09-28T17:51:45.719Z,17.73
2022-09-28T17:54:16.751Z,17.64
2022-09-28T17:56:46.142Z,17.52
2022-09-28T17:59:17.834Z,17.48
2022-09-28T18:01:46.154Z,17.47
2022-09-28T18:04:40.129Z,17.45
2022-09-28T18:07:06.926Z,17.41
2022-09-28T18:09:35.072Z,17.38
2022-09-28T18:12:05.626Z,17.32
2022-09-28T18:14:35.681Z,17.34
2022-09-28T18:17:04.395Z,17.31
2022-09-28T18:19:32.702Z,17.28
2022-09-28T18:22:01.502Z,17.25
2022-09-28T18:24:29.909Z,17.25
2022-09-28T18:26:58.204Z,17.27
2022-09-28T18:29:29.893Z,17.25
2022-09-28T18:32:00.706Z,17.23
2022-09-28T18:34:28.873Z,17.21
2022-09-28T18:37:02.201Z,17.18
2022-09-28T18:39:31.666Z,17.16
2022-09-28T18:41:59.863Z,17.22
2022-09-28T18:44:28.109Z,17.21
2022-09-28T18:46:56.339Z,17.17
2022-09-28T18:49:26.042Z,17.02
2022-09-28T18:51:54.365Z,16.96
2022-09-28T18:54:23.245Z,16.90
2022-09-28T18:56:56.286Z,16.84
2022-09-28T18:59:25.164Z,16.79
2022-09-28T19:01:53.464Z,16.78
2022-09-28T19:04:21.876Z,16.69
2022-09-28T19:06:52.318Z,16.57
2022-09-28T19:09:22.460Z,16.33
2022-09-28T19:11:53.635Z,16.29
2022-09-28T19:14:22.044Z,16.25
2022-09-28T19:16:50.291Z,16.27
2022-09-28T19:19:20.101Z,16.20
2022-09-28T19:21:51.205Z,16.15
2022-09-28T19:24:19.926Z,16.17
2022-09-28T19:26:48.689Z,16.15
2022-09-28T19:29:17.927Z,16.14
2022-09-28T19:31:46.580Z,16.13
2022-09-28T19:34:15.027Z,16.07
2022-09-28T19:36:43.456Z,16.01
2022-09-28T19:39:14.664Z,15.98
2022-09-28T19:41:49.450Z,15.91
2022-09-28T19:44:26.137Z,15.82
2022-09-28T19:47:07.416Z,15.79
2022-09-28T19:49:37.881Z,15.72
2022-09-28T19:52:13.942Z,15.69
2022-09-28T19:54:57.414Z,15.60
2022-09-28T19:57:28.041Z,15.56
2022-09-28T20:00:01.723Z,15.53
2022-09-28T20:02:34.818Z,15.49
2022-09-28T20:05:03.485Z,15.48
2022-09-28T20:07:33.404Z,15.47
2022-09-28T20:10:01.550Z,15.45
2022-09-28T20:12:32.982Z,15.33
2022-09-28T20:15:01.212Z,15.32
2022-09-28T20:17:29.410Z,15.26
2022-09-28T20:19:57.690Z,15.24
2022-09-28T20:22:25.850Z,15.21
2022-09-28T20:24:53.959Z,15.20
2022-09-28T20:27:26.228Z,15.16
2022-09-28T20:29:54.711Z,15.14
2022-09-28T20:32:22.814Z,15.06
2022-09-28T20:34:50.968Z,15.01
2022-09-28T20:37:19.359Z,14.95
2022-09-28T20:39:47.687Z,14.97
2022-09-28T20:42:19.172Z,15.08
2022-09-28T20:44:47.419Z,15.04
2022-09-28T20:47:15.557Z,14.99
2022-09-28T20:49:44.537Z,14.89
2022-09-28T20:52:12.724Z,14.85
2022-09-28T20:54:40.852Z,14.84
2022-09-28T20:57:17.881Z,14.79
2022-09-28T20:59:50.999Z,14.71
2022-09-28T21:02:22.917Z,14.71
2022-09-28T21:04:51.265Z,14.63
2022-09-28T21:07:19.607Z,14.67
2022-09-28T21:09:49.677Z,14.68
2022-09-28T21:12:21.206Z,14.62
2022-09-28T21:14:50.217Z,14.49
2022-09-28T21:17:18.674Z,14.38
2022-09-28T21:19:46.835Z,14.33
2022-09-28T21:22:14.946Z,14.36
2022-09-28T21:24:43.175Z,14.38
2022-09-28T21:27:11.329Z,14.43
2022-09-28T21:29:39.556Z,14.50
2022-09-28T21:32:08.501Z,14.57
2022-09-28T21:34:36.638Z,14.60
2022-09-28T21:37:05.460Z,14.66
2022-09-28T21:39:33.805Z,14.68
2022-09-28T21:42:02.028Z,14.69
2022-09-28T21:44:30.242Z,14.77
2022-09-28T21:46:58.459Z,14.81
2022-09-28T21:49:26.602Z,14.77
2022-09-28T21:51:54.787Z,14.71
2022-09-28T21:54:22.909Z,14.65
2022-09-28T21:56:51.036Z,14.60
2022-09-28T21:59:19.269Z,14.64
2022-09-28T22:01:48.199Z,14.63
2022-09-28T22:04:16.592Z,14.61
2022-09-28T22:06:44.850Z,14.60
2022-09-28T22:09:13.010Z,14.55
2022-09-28T22:11:42.139Z,14.50
2022-09-28T22:14:11.436Z,14.42
2022-09-28T22:16:39.792Z,14.37
2022-09-28T22:19:07.976Z,14.35
2022-09-28T22:21:36.375Z,14.39
2022-09-28T22:24:06.702Z,14.34
2022-09-28T22:26:36.904Z,14.32
2022-09-28T22:29:08.037Z,14.32
2022-09-28T22:31:39.138Z,14.27
2022-09-28T22:34:09.214Z,14.29
2022-09-28T22:36:37.529Z,14.27
2022-09-28T22:39:07.592Z,14.29
2022-09-28T22:41:36.853Z,14.32
2022-09-28T22:44:05.157Z,14.37
2022-09-28T22:46:33.282Z,14.27
2022-09-28T22:49:01.879Z,14.23
2022-09-28T22:51:31.579Z,14.18
2022-09-28T22:53:59.916Z,14.15
2022-09-28T22:56:28.639Z,14.15
2022-09-28T22:58:57.318Z,14.17
2022-09-28T23:01:30.097Z,14.18
2022-09-28T23:03:59.596Z,14.20
2022-09-28T23:06:32.092Z,14.26
2022-09-28T23:09:03.916Z,14.30
2022-09-28T23:11:32.437Z,14.34
2022-09-28T23:14:00.685Z,14.44
2022-09-28T23:16:30.144Z,14.41
2022-09-28T23:19:01.490Z,14.41
2022-09-28T23:21:29.709Z,14.36
2022-09-28T23:24:02.998Z,14.42
2022-09-28T23:26:34.237Z,14.39
2022-09-28T23:29:02.851Z,14.34
2022-09-28T23:31:33.117Z,14.35
2022-09-28T23:34:06.060Z,14.23
2022-09-28T23:36:34.782Z,14.14
2022-09-28T23:39:03.666Z,14.13
2022-09-28T23:41:31.815Z,14.07
2022-09-28T23:44:00.298Z,14.09
2022-09-28T23:46:28.565Z,14.08
2022-09-28T23:48:56.818Z,14.14
2022-09-28T23:51:25.088Z,14.15
2022-09-28T23:53:53.499Z,14.18
2022-09-28T23:56:21.655Z,14.15
2022-09-28T23:58:49.815Z,14.18
